Portada
METAR-TAF:

METAR-TAF

Aeroports :

Wings Field

Filadèlfia-Blue Bell, Pennsilvània, Estats Units d'Amèrica

latitud: 40-08-15N, longitud: 075-15-54W, altitud: 92 m

Observació

L'informe es va fer fa 15 minuts, a les 17:15 UTC
Vent 3 kt del Est/Nord-Est
Temperatura 25°C
Humitat 65%
Pressió 1023 hPa
Visibilitat: 16.1 km
Cel clar

METAR: KLOM 261715Z AUTO 06003KT 10SM CLR 25/18 A3021 RMK AO2 T02450178

Hora: 13:30 (17:30 UTC)


TAF: manca

Observacions i pronòstics meteorològics de més de 4000 aeroports (METAR i TAF).

Les estacions disponibles són els punts grocs i vermells al mapa.

Posi el ratolí al punt desitjat per veure el nom de l'estació.

Feu clic per veure les observacions i els pronòstics meteorològics.

Per canviar el mapa: feu clic els botons verds amb una creu de color negre per apropar; al botó verd amb un guió per allunyar la imatge; o en les fletxes verdes per a mapes adjacents.


METAR-TAF: